createdAt,value
2023-09-08T00:02:23.164Z,26.50
2023-09-08T00:05:15.767Z,25.20
2023-09-08T00:08:08.914Z,24.80
2023-09-08T00:11:01.915Z,27.40
2023-09-08T00:13:54.730Z,24.00
2023-09-08T00:16:49.727Z,25.20
2023-09-08T00:19:42.955Z,23.70
2023-09-08T00:22:37.413Z,22.30
2023-09-08T00:25:30.270Z,23.00
2023-09-08T00:28:23.024Z,21.90
2023-09-08T00:31:15.651Z,23.10
2023-09-08T00:34:09.529Z,24.30
2023-09-08T00:37:26.056Z,22.60
2023-09-08T00:40:19.087Z,23.40
2023-09-08T00:43:13.548Z,23.20
2023-09-08T00:46:06.526Z,22.70
2023-09-08T00:49:01.885Z,22.60
2023-09-08T00:51:55.156Z,24.40
2023-09-08T00:54:48.939Z,22.20
2023-09-08T00:57:41.764Z,24.50
2023-09-08T01:00:35.049Z,23.00
2023-09-08T01:03:16.555Z,23.10
2023-09-08T01:06:10.283Z,23.70
2023-09-08T01:09:03.857Z,23.30
2023-09-08T01:12:01.912Z,23.70
2023-09-08T01:14:54.693Z,22.70
2023-09-08T01:17:27.649Z,23.70
2023-09-08T01:20:26.077Z,25.90
2023-09-08T01:23:30.669Z,23.50
2023-09-08T01:26:28.139Z,23.10
2023-09-08T01:29:21.852Z,23.30
2023-09-08T01:32:15.903Z,22.30
2023-09-08T01:35:09.932Z,22.90
2023-09-08T01:38:02.620Z,22.50
2023-09-08T01:40:55.302Z,23.30
2023-09-08T01:43:50.207Z,23.40
2023-09-08T01:46:43.053Z,24.00
2023-09-08T01:49:38.139Z,23.30
2023-09-08T01:52:31.105Z,23.80
2023-09-08T01:55:23.729Z,23.80
2023-09-08T01:58:16.535Z,23.40
2023-09-08T02:01:07.401Z,21.70
2023-09-08T02:04:00.247Z,22.30
2023-09-08T02:06:54.301Z,21.00
2023-09-08T02:09:47.360Z,22.30
2023-09-08T02:12:43.656Z,20.70
2023-09-08T02:15:38.907Z,22.00
2023-09-08T02:18:32.173Z,22.70
2023-09-08T02:21:24.976Z,21.80
2023-09-08T02:24:20.048Z,22.60
2023-09-08T02:27:12.757Z,22.10
2023-09-08T02:30:07.759Z,21.80
2023-09-08T02:33:00.537Z,21.20
2023-09-08T02:35:54.251Z,21.70
2023-09-08T02:38:47.032Z,22.40
2023-09-08T02:41:42.539Z,22.90
2023-09-08T02:44:36.052Z,22.40
2023-09-08T02:47:30.004Z,24.00
2023-09-08T02:50:23.324Z,25.30
2023-09-08T02:53:16.090Z,24.30
2023-09-08T02:56:10.550Z,26.00
2023-09-08T02:59:03.238Z,27.00
2023-09-08T03:01:56.037Z,25.90
2023-09-08T03:04:49.604Z,26.30
2023-09-08T03:07:42.341Z,25.40
2023-09-08T03:10:37.583Z,24.90
2023-09-08T03:13:13.532Z,25.60
2023-09-08T03:16:10.625Z,25.80
2023-09-08T03:19:03.560Z,26.00
2023-09-08T03:21:56.322Z,24.60
2023-09-08T03:24:42.706Z,23.00
2023-09-08T03:27:34.033Z,24.00
2023-09-08T03:30:29.850Z,22.80
2023-09-08T03:33:22.750Z,24.00
2023-09-08T03:36:16.634Z,23.80
2023-09-08T03:39:11.007Z,26.90
2023-09-08T03:42:03.994Z,25.70
2023-09-08T03:44:56.745Z,24.50
2023-09-08T03:47:49.494Z,27.40
2023-09-08T03:50:43.369Z,26.30
2023-09-08T03:53:36.923Z,36.60
2023-09-08T03:56:22.812Z,34.00
2023-09-08T03:59:16.180Z,29.90
2023-09-08T04:02:09.012Z,30.80
2023-09-08T04:05:02.293Z,27.50
2023-09-08T04:07:55.332Z,28.70
2023-09-08T04:10:48.471Z,28.10
2023-09-08T04:13:41.152Z,27.40
2023-09-08T04:16:34.828Z,26.70
2023-09-08T04:19:28.044Z,24.60
2023-09-08T04:22:21.584Z,27.10
2023-09-08T04:25:15.548Z,26.80
2023-09-08T04:28:10.001Z,27.90
2023-09-08T04:31:03.411Z,27.90
2023-09-08T04:33:57.584Z,30.10
2023-09-08T04:36:50.220Z,28.30
2023-09-08T04:39:43.242Z,29.90
2023-09-08T04:42:36.239Z,28.90
2023-09-08T04:45:29.351Z,26.00
2023-09-08T04:48:15.442Z,27.00
2023-09-08T04:51:08.809Z,25.00
2023-09-08T04:54:01.440Z,23.40
2023-09-08T04:56:57.031Z,24.60
2023-09-08T04:59:56.983Z,25.00
2023-09-08T05:02:50.175Z,24.50
2023-09-08T05:05:35.825Z,23.90
2023-09-08T05:08:28.573Z,22.90
2023-09-08T05:11:21.461Z,23.50
2023-09-08T05:14:14.610Z,23.50
2023-09-08T05:17:07.757Z,22.00
2023-09-08T05:19:56.309Z,21.30
2023-09-08T05:22:49.047Z,21.10
2023-09-08T05:25:43.980Z,19.90
2023-09-08T05:28:39.404Z,20.90
2023-09-08T05:31:34.209Z,22.00
2023-09-08T05:34:26.932Z,20.00
2023-09-08T05:37:19.699Z,20.30
2023-09-08T05:40:13.498Z,21.10
2023-09-08T05:43:07.827Z,21.30
2023-09-08T05:46:00.689Z,24.90
2023-09-08T05:48:53.555Z,26.10
2023-09-08T05:51:46.507Z,24.30
2023-09-08T05:54:40.110Z,23.30
2023-09-08T05:57:32.831Z,22.40
2023-09-08T06:00:25.614Z,22.70
2023-09-08T06:03:18.401Z,22.00
2023-09-08T06:06:12.542Z,22.40
2023-09-08T06:09:09.099Z,22.00
2023-09-08T06:11:55.196Z,22.40
2023-09-08T06:14:48.395Z,22.70
2023-09-08T06:17:35.560Z,23.80
2023-09-08T06:20:29.263Z,23.40
2023-09-08T06:23:25.838Z,24.60
2023-09-08T06:26:18.176Z,24.70
2023-09-08T06:29:11.180Z,25.80
2023-09-08T06:32:04.040Z,25.60
2023-09-08T06:34:56.786Z,25.70
2023-09-08T06:37:49.588Z,26.60
2023-09-08T06:40:42.674Z,26.80
2023-09-08T06:43:35.253Z,26.40
2023-09-08T06:46:28.226Z,27.20
2023-09-08T06:49:21.375Z,26.50
2023-09-08T06:52:14.482Z,27.20
2023-09-08T06:55:08.139Z,27.90
2023-09-08T06:58:00.867Z,27.10
2023-09-08T07:00:55.786Z,26.10
2023-09-08T07:03:49.149Z,27.30
2023-09-08T07:06:43.076Z,27.10
2023-09-08T07:09:36.846Z,26.40
2023-09-08T07:12:29.669Z,28.10
2023-09-08T07:15:22.262Z,27.30
2023-09-08T07:18:15.333Z,27.00
2023-09-08T07:21:08.370Z,27.70
2023-09-08T07:24:01.792Z,26.40
2023-09-08T07:26:56.431Z,27.00
2023-09-08T07:29:50.795Z,27.30
2023-09-08T07:32:44.032Z,26.10
2023-09-08T07:35:38.507Z,26.40
2023-09-08T07:38:31.433Z,26.30
2023-09-08T07:41:24.822Z,27.00
2023-09-08T07:44:17.752Z,26.00
2023-09-08T07:46:59.631Z,25.30
2023-09-08T07:49:52.412Z,24.20
2023-09-08T07:52:35.328Z,25.10
2023-09-08T07:55:30.067Z,25.20
2023-09-08T07:58:23.954Z,25.00
2023-09-08T08:01:17.308Z,24.30
2023-09-08T08:04:10.604Z,23.60
2023-09-08T08:07:03.514Z,24.30
2023-09-08T08:09:56.578Z,23.80
2023-09-08T08:12:49.463Z,24.70
2023-09-08T08:15:23.638Z,24.60
2023-09-08T08:18:16.808Z,24.10
2023-09-08T08:21:09.480Z,22.20
2023-09-08T08:24:01.303Z,23.10
2023-09-08T08:26:54.292Z,22.90
2023-09-08T08:29:46.909Z,23.20
2023-09-08T08:32:39.432Z,24.10
2023-09-08T08:35:25.736Z,23.80
2023-09-08T08:38:18.500Z,24.10
2023-09-08T08:41:11.275Z,23.70
2023-09-08T08:44:04.446Z,23.30
2023-09-08T08:46:58.160Z,23.40
2023-09-08T08:49:50.833Z,23.70
2023-09-08T08:52:43.130Z,24.10
2023-09-08T08:55:36.682Z,22.20
2023-09-08T08:58:30.233Z,22.70
2023-09-08T09:01:23.439Z,22.70
2023-09-08T09:04:16.865Z,23.20
2023-09-08T09:07:10.313Z,21.50
2023-09-08T09:10:01.817Z,18.90
2023-09-08T09:12:54.844Z,17.80
2023-09-08T09:15:48.254Z,18.10
2023-09-08T09:18:59.878Z,17.90
2023-09-08T09:21:52.608Z,16.20
2023-09-08T09:24:46.497Z,17.20
2023-09-08T09:27:38.991Z,15.90
2023-09-08T09:30:25.883Z,14.10
2023-09-08T09:33:09.356Z,12.60
2023-09-08T09:36:02.174Z,14.40
2023-09-08T09:39:00.157Z,15.00
2023-09-08T09:41:55.732Z,14.10
2023-09-08T09:44:49.139Z,14.90
2023-09-08T09:47:40.887Z,14.70
2023-09-08T09:50:35.534Z,12.00
2023-09-08T09:53:27.682Z,12.10
2023-09-08T09:56:22.849Z,12.10
2023-09-08T09:59:16.898Z,11.60
2023-09-08T10:02:14.835Z,10.70
2023-09-08T10:05:16.547Z,10.00
2023-09-08T10:08:11.668Z,10.40
2023-09-08T10:11:02.367Z,11.30
2023-09-08T10:13:49.194Z,10.10
2023-09-08T10:16:45.601Z,10.90
2023-09-08T10:19:44.245Z,10.70
2023-09-08T11:20:32.614Z,9.20
2023-09-08T11:23:06.407Z,9.20
2023-09-08T11:25:39.355Z,9.20
2023-09-08T11:28:24.135Z,8.70
2023-09-08T11:30:58.549Z,9.00
2023-09-08T11:33:42.598Z,8.90
2023-09-08T11:36:20.035Z,9.20
2023-09-08T11:38:52.799Z,8.80
2023-09-08T11:41:30.426Z,8.30
2023-09-08T11:44:08.728Z,8.60
2023-09-08T11:46:42.879Z,8.20
2023-09-08T11:49:24.159Z,8.30
2023-09-08T11:51:58.470Z,8.10
2023-09-08T11:54:51.962Z,8.00
2023-09-08T11:57:38.307Z,8.70
2023-09-08T12:00:17.181Z,8.10
2023-09-08T12:02:52.687Z,7.60
2023-09-08T12:05:52.863Z,8.80
2023-09-08T12:08:30.509Z,8.30
2023-09-08T12:11:03.260Z,8.20
2023-09-08T12:13:38.558Z,8.70
2023-09-08T12:16:23.537Z,8.20
2023-09-08T12:18:56.369Z,8.00
2023-09-08T12:21:29.040Z,8.20
2023-09-08T12:24:04.777Z,7.80
2023-09-08T12:26:40.039Z,7.90
2023-09-08T12:29:17.756Z,8.60
2023-09-08T12:31:50.157Z,7.80
2023-09-08T12:34:25.302Z,8.10
2023-09-08T12:37:00.688Z,8.50
2023-09-08T12:39:33.207Z,8.10
2023-09-08T12:42:08.764Z,7.70
2023-09-08T12:44:42.893Z,7.50
2023-09-08T12:47:15.802Z,7.90
2023-09-08T12:49:51.537Z,7.10
2023-09-08T12:52:27.259Z,7.20
2023-09-08T12:55:00.817Z,7.90
2023-09-08T12:57:33.318Z,7.50
2023-09-08T13:00:08.604Z,7.70
2023-09-08T13:02:42.779Z,7.20
2023-09-08T13:05:15.573Z,7.50
2023-09-08T13:07:48.365Z,7.60
2023-09-08T13:10:21.385Z,7.10
2023-09-08T13:12:54.307Z,7.20
2023-09-08T13:15:37.586Z,7.10
2023-09-08T13:18:10.424Z,7.20
2023-09-08T13:20:43.022Z,7.20
2023-09-08T13:23:16.006Z,7.70
2023-09-08T13:25:53.045Z,7.10
2023-09-08T13:28:28.097Z,7.50
2023-09-08T13:31:00.985Z,8.00
2023-09-08T13:33:37.384Z,7.80
2023-09-08T13:36:12.218Z,7.10
2023-09-08T13:38:46.647Z,7.40
2023-09-08T13:41:19.592Z,7.30
2023-09-08T13:43:52.261Z,7.80
2023-09-08T13:46:27.980Z,7.10
2023-09-08T13:49:05.027Z,7.50
2023-09-08T13:51:42.552Z,7.40
2023-09-08T13:54:18.199Z,7.60
2023-09-08T13:57:03.357Z,7.70
2023-09-08T13:59:42.456Z,7.20
2023-09-08T14:02:39.784Z,6.80
2023-09-08T14:05:11.215Z,7.10
2023-09-08T14:07:46.746Z,7.80
2023-09-08T14:13:00.085Z,7.70
2023-09-08T14:15:34.599Z,7.70
2023-09-08T14:18:07.859Z,7.30
2023-09-08T14:20:40.440Z,7.50
2023-09-08T14:23:13.063Z,7.30
2023-09-08T14:25:48.149Z,7.10
2023-09-08T14:28:35.051Z,7.10
2023-09-08T14:31:08.451Z,7.10
2023-09-08T14:33:41.394Z,7.70
2023-09-08T14:36:18.830Z,7.30
2023-09-08T14:41:25.276Z,7.20
2023-09-08T14:44:00.744Z,7.20
2023-09-08T14:46:36.276Z,7.30
2023-09-08T14:49:20.169Z,7.50
2023-09-08T14:51:52.866Z,7.60
2023-09-08T14:54:27.563Z,7.70
2023-09-08T14:57:20.321Z,7.80
2023-09-08T14:59:58.315Z,7.30
2023-09-08T15:02:34.489Z,7.30
2023-09-08T15:05:07.884Z,7.90
2023-09-08T15:07:43.246Z,7.40
2023-09-08T15:10:15.859Z,8.20
2023-09-08T15:12:51.406Z,8.10
2023-09-08T15:15:26.949Z,7.60
2023-09-08T15:18:23.796Z,7.30
2023-09-08T15:20:59.160Z,7.40
2023-09-08T15:23:35.376Z,7.90
2023-09-08T15:26:22.395Z,7.90
2023-09-08T15:29:16.433Z,7.20
2023-09-08T15:31:59.720Z,7.40
2023-09-08T15:34:44.510Z,7.40
2023-09-08T15:37:30.399Z,7.60
2023-09-08T15:40:15.640Z,9.00
2023-09-08T15:42:50.263Z,7.80
2023-09-08T15:45:34.491Z,8.30
2023-09-08T15:48:09.962Z,8.40
2023-09-08T15:50:42.617Z,7.60
2023-09-08T15:53:18.225Z,7.10
2023-09-08T15:55:50.957Z,8.20
2023-09-08T15:58:27.550Z,8.00
2023-09-08T16:01:10.486Z,8.00
2023-09-08T16:03:46.543Z,7.90
2023-09-08T16:06:25.699Z,8.10
2023-09-08T16:08:58.137Z,7.70
2023-09-08T16:11:41.144Z,8.10
2023-09-08T16:14:16.262Z,8.80
2023-09-08T16:16:48.903Z,9.30
2023-09-08T16:19:24.784Z,9.70
2023-09-08T16:22:09.092Z,10.90
2023-09-08T16:24:51.890Z,9.00
2023-09-08T16:27:35.023Z,9.70
2023-09-08T16:30:18.181Z,10.50
2023-09-08T16:33:11.118Z,9.60
2023-09-08T16:36:06.262Z,10.10
2023-09-08T16:38:41.295Z,11.50
2023-09-08T16:41:17.182Z,17.40
2023-09-08T16:43:55.207Z,15.70
2023-09-08T16:46:31.048Z,13.00
2023-09-08T16:49:03.827Z,12.70
2023-09-08T16:51:36.570Z,12.00
2023-09-08T16:54:13.500Z,12.10
2023-09-08T16:56:57.398Z,12.20
2023-09-08T16:59:30.562Z,13.00
2023-09-08T17:02:13.862Z,12.40
2023-09-08T17:04:47.414Z,13.20
2023-09-08T17:07:20.255Z,12.20
2023-09-08T17:09:56.227Z,12.60
2023-09-08T17:12:29.912Z,12.80
2023-09-08T17:15:06.671Z,13.50
2023-09-08T17:17:39.573Z,13.50
2023-09-08T17:20:26.047Z,13.10
2023-09-08T17:23:02.489Z,14.60
2023-09-08T17:25:34.982Z,14.10
2023-09-08T17:28:07.938Z,13.60
2023-09-08T17:30:41.906Z,13.90
2023-09-08T17:33:16.912Z,14.60
2023-09-08T17:35:52.092Z,13.90
2023-09-08T17:38:27.439Z,13.80
2023-09-08T17:41:10.245Z,13.90
2023-09-08T17:43:46.729Z,13.90
2023-09-08T17:46:19.525Z,14.90
2023-09-08T17:48:55.496Z,14.80
2023-09-08T17:51:27.778Z,15.10
2023-09-08T17:54:00.732Z,15.70
2023-09-08T17:56:33.304Z,15.70
2023-09-08T17:59:06.338Z,15.60
2023-09-08T18:01:40.247Z,18.20
2023-09-08T18:04:23.032Z,21.30
2023-09-08T18:06:57.931Z,20.30
2023-09-08T18:09:41.045Z,16.70
2023-09-08T18:12:34.514Z,15.90
2023-09-08T18:15:13.344Z,16.40
2023-09-08T18:17:48.637Z,18.40
2023-09-08T18:20:21.933Z,16.90
2023-09-08T18:22:55.875Z,17.30
2023-09-08T18:25:28.749Z,18.60
2023-09-08T18:28:01.585Z,19.00
2023-09-08T18:30:34.468Z,18.40
2023-09-08T18:33:07.602Z,17.70
2023-09-08T18:35:41.431Z,17.60
2023-09-08T18:38:15.119Z,19.50
2023-09-08T18:40:50.431Z,19.50
2023-09-08T18:43:22.991Z,20.00
2023-09-08T18:45:55.705Z,22.40
2023-09-08T18:48:31.720Z,21.10
2023-09-08T18:51:04.718Z,22.30
2023-09-08T18:53:39.391Z,21.40
2023-09-08T18:56:12.521Z,21.60
2023-09-08T18:58:48.484Z,21.90
2023-09-08T19:01:21.255Z,21.90
2023-09-08T19:03:53.978Z,22.60
2023-09-08T19:06:26.513Z,22.90
2023-09-08T19:08:59.634Z,23.30
2023-09-08T19:11:33.960Z,25.00
2023-09-08T19:14:08.461Z,24.80
2023-09-08T19:16:41.090Z,23.80
2023-09-08T19:19:19.223Z,24.20
2023-09-08T19:21:51.760Z,23.30
2023-09-08T19:24:25.725Z,23.70
2023-09-08T19:26:58.504Z,24.60
2023-09-08T19:29:32.831Z,25.50
2023-09-08T19:32:06.846Z,25.40
2023-09-08T19:34:39.654Z,26.90
2023-09-08T19:37:12.529Z,25.40
2023-09-08T19:39:46.389Z,27.00
2023-09-08T19:42:19.148Z,28.30
2023-09-08T19:44:51.925Z,28.80
2023-09-08T19:47:24.672Z,29.80
2023-09-08T19:49:57.340Z,33.30
2023-09-08T19:52:30.106Z,30.80
2023-09-08T19:55:03.013Z,36.60
2023-09-08T19:57:35.774Z,35.60
2023-09-08T20:00:10.470Z,37.70
2023-09-08T20:02:48.332Z,38.80
2023-09-08T20:05:21.132Z,43.90
2023-09-08T20:07:54.766Z,42.80
2023-09-08T20:10:35.155Z,39.50
2023-09-08T20:13:09.453Z,39.10
2023-09-08T20:15:42.027Z,38.40
2023-09-08T20:18:14.991Z,39.80
2023-09-08T20:20:47.817Z,39.00
2023-09-08T20:23:20.622Z,37.10
2023-09-08T20:25:54.919Z,33.50
2023-09-08T20:28:30.584Z,35.00
2023-09-08T20:33:39.669Z,37.20
2023-09-08T20:36:12.854Z,36.40
2023-09-08T20:38:45.628Z,38.20
2023-09-08T20:41:18.164Z,42.10
2023-09-08T20:43:51.005Z,38.50
2023-09-08T20:46:23.748Z,38.60
2023-09-08T20:48:56.242Z,40.20
2023-09-08T20:51:28.742Z,39.40
2023-09-08T20:54:03.442Z,39.20
2023-09-08T20:56:40.038Z,37.60
2023-09-08T20:59:12.828Z,39.20
2023-09-08T21:01:45.369Z,37.00
2023-09-08T21:04:21.099Z,38.30
2023-09-08T21:06:55.222Z,37.30
2023-09-08T21:09:28.119Z,37.00
2023-09-08T21:12:00.717Z,35.60
2023-09-08T21:14:33.415Z,36.40
2023-09-08T21:17:06.445Z,36.80
2023-09-08T21:19:38.948Z,35.40
2023-09-08T21:22:11.646Z,37.90
2023-09-08T21:24:47.940Z,36.40
2023-09-08T21:27:23.003Z,36.90
2023-09-08T21:30:06.508Z,35.70
2023-09-08T21:32:40.026Z,36.40
2023-09-08T21:35:13.425Z,36.20
2023-09-08T21:37:47.885Z,35.30
2023-09-08T21:40:43.519Z,33.80
2023-09-08T21:43:16.162Z,35.90
2023-09-08T21:46:07.662Z,34.50
2023-09-08T21:48:50.753Z,34.70
2023-09-08T21:51:47.399Z,35.30
2023-09-08T21:54:40.352Z,34.00
2023-09-08T21:57:33.417Z,34.30
2023-09-08T22:00:22.479Z,35.00
2023-09-08T22:03:01.074Z,33.90
2023-09-08T22:05:34.592Z,35.00
2023-09-08T22:08:11.155Z,32.90
2023-09-08T22:11:08.295Z,33.30
2023-09-08T22:13:45.090Z,32.50
2023-09-08T22:16:21.136Z,34.50
2023-09-08T22:19:15.306Z,32.30
2023-09-08T22:22:09.041Z,34.20
2023-09-08T22:24:45.644Z,33.20
2023-09-08T22:27:23.957Z,33.70
2023-09-08T22:30:17.598Z,34.70
2023-09-08T22:33:11.870Z,35.90
2023-09-08T22:35:55.436Z,37.80
2023-09-08T22:38:32.051Z,37.10
2023-09-08T22:41:08.490Z,35.70
2023-09-08T22:43:44.397Z,34.20
2023-09-08T22:46:37.477Z,35.50
2023-09-08T22:49:14.051Z,36.00
2023-09-08T22:52:07.987Z,37.60
2023-09-08T22:55:13.008Z,34.80
2023-09-08T22:58:16.061Z,36.10
2023-09-08T23:00:49.019Z,35.20
2023-09-08T23:03:21.971Z,35.40
2023-09-08T23:06:05.819Z,34.50
2023-09-08T23:08:49.588Z,35.40
2023-09-08T23:11:31.786Z,36.40
2023-09-08T23:14:27.557Z,34.90
2023-09-08T23:17:11.137Z,35.90
2023-09-08T23:19:43.474Z,35.60
2023-09-08T23:22:19.544Z,35.40
2023-09-08T23:24:52.412Z,35.50
2023-09-08T23:27:28.261Z,36.00
2023-09-08T23:30:05.080Z,34.30
2023-09-08T23:32:58.153Z,35.30
2023-09-08T23:35:31.627Z,35.50
2023-09-08T23:38:06.962Z,33.90
2023-09-08T23:40:41.076Z,35.90
2023-09-08T23:43:24.999Z,34.00
2023-09-08T23:46:01.078Z,31.60
2023-09-08T23:48:44.814Z,32.70
2023-09-08T23:51:19.603Z,34.70
2023-09-08T23:54:12.500Z,35.40
2023-09-08T23:56:47.263Z,35.50
2023-09-08T23:59:20.670Z,34.70
